createdAt,value
2023-05-13T00:00:17.174Z,3.08
2023-05-13T00:01:17.827Z,3.02
2023-05-13T00:02:17.227Z,3.05
2023-05-13T00:03:17.430Z,3.02
2023-05-13T00:04:17.186Z,2.99
2023-05-13T00:05:17.221Z,3.04
2023-05-13T00:06:17.282Z,2.91
2023-05-13T00:07:17.218Z,2.91
2023-05-13T00:08:17.244Z,2.94
2023-05-13T00:09:17.291Z,3.00
2023-05-13T00:10:17.346Z,3.00
2023-05-13T00:11:17.334Z,2.94
2023-05-13T00:12:17.330Z,2.96
2023-05-13T00:13:17.356Z,2.89
2023-05-13T00:14:17.349Z,2.84
2023-05-13T00:15:17.433Z,2.82
2023-05-13T00:16:17.486Z,2.84
2023-05-13T00:17:17.463Z,2.86
2023-05-13T00:18:17.450Z,2.84
2023-05-13T00:19:17.461Z,2.84
2023-05-13T00:20:17.492Z,2.78
2023-05-13T00:21:17.524Z,2.77
2023-05-13T00:22:17.581Z,2.75
2023-05-13T00:23:17.592Z,2.76
2023-05-13T00:24:17.618Z,2.76
2023-05-13T00:25:17.622Z,2.76
2023-05-13T00:26:17.642Z,2.73
2023-05-13T00:27:17.662Z,2.67
2023-05-13T00:28:17.652Z,2.67
2023-05-13T00:29:17.688Z,2.67
2023-05-13T00:30:17.690Z,2.67
2023-05-13T00:31:17.711Z,2.64
2023-05-13T00:32:17.847Z,2.71
2023-05-13T00:33:17.767Z,2.67
2023-05-13T00:34:17.775Z,2.72
2023-05-13T00:35:17.802Z,2.65
2023-05-13T00:36:17.820Z,2.65
2023-05-13T00:37:17.816Z,2.68
2023-05-13T00:38:17.866Z,2.68
2023-05-13T00:39:17.850Z,2.66
2023-05-13T00:40:17.915Z,2.64
2023-05-13T00:41:17.912Z,2.64
2023-05-13T00:42:17.942Z,2.60
2023-05-13T00:43:17.978Z,2.61
2023-05-13T00:44:18.010Z,2.61
2023-05-13T00:45:18.065Z,2.58
2023-05-13T00:46:18.060Z,2.56
2023-05-13T00:47:18.087Z,2.58
2023-05-13T00:48:18.076Z,2.59
2023-05-13T00:49:18.099Z,2.55
2023-05-13T00:50:18.158Z,2.55
2023-05-13T00:51:18.120Z,2.57
2023-05-13T00:52:18.120Z,2.53
2023-05-13T00:53:18.162Z,2.52
2023-05-13T00:54:18.207Z,2.55
2023-05-13T00:55:18.277Z,2.58
2023-05-13T00:56:18.275Z,2.55
2023-05-13T00:57:18.325Z,2.55
2023-05-13T00:58:18.311Z,2.52
2023-05-13T00:59:18.368Z,2.50
2023-05-13T01:00:18.546Z,2.52
2023-05-13T01:01:18.470Z,2.49
2023-05-13T01:02:18.428Z,2.47
2023-05-13T01:03:18.525Z,2.49
2023-05-13T01:04:18.415Z,2.52
2023-05-13T01:05:18.435Z,2.54
2023-05-13T01:06:18.495Z,2.50
2023-05-13T01:07:18.528Z,2.44
2023-05-13T01:08:18.498Z,2.45
2023-05-13T01:09:18.585Z,2.49
2023-05-13T01:10:18.544Z,2.48
2023-05-13T01:11:18.632Z,2.45
2023-05-13T01:12:18.643Z,2.44
2023-05-13T01:13:18.618Z,2.53
2023-05-13T01:14:18.667Z,2.52
2023-05-13T01:15:18.650Z,2.41
2023-05-13T01:16:18.736Z,2.43
2023-05-13T01:17:18.710Z,2.43
2023-05-13T01:18:18.792Z,2.43
2023-05-13T01:19:18.793Z,2.41
2023-05-13T01:20:18.901Z,2.40
2023-05-13T01:21:18.839Z,2.38
2023-05-13T01:22:18.850Z,2.37
2023-05-13T01:23:18.922Z,2.42
2023-05-13T01:24:19.009Z,2.42
2023-05-13T01:25:18.933Z,2.38
2023-05-13T01:26:18.955Z,2.38
2023-05-13T01:27:18.980Z,2.42
2023-05-13T01:28:19.018Z,2.44
2023-05-13T01:29:19.062Z,2.41
2023-05-13T01:30:19.207Z,2.42
2023-05-13T01:31:19.120Z,2.43
2023-05-13T01:32:19.133Z,2.43
2023-05-13T01:33:19.125Z,2.33
2023-05-13T01:34:19.188Z,2.39
2023-05-13T01:35:19.223Z,2.34
2023-05-13T01:36:19.234Z,2.35
2023-05-13T01:37:19.268Z,2.37
2023-05-13T01:38:19.274Z,2.36
2023-05-13T01:39:19.288Z,2.38
2023-05-13T01:40:31.169Z,2.37
2023-05-13T01:41:20.322Z,2.37
2023-05-13T01:42:19.296Z,2.37
2023-05-13T01:43:19.329Z,2.38
2023-05-13T01:44:19.331Z,2.39
2023-05-13T01:45:19.339Z,2.42
2023-05-13T01:46:19.318Z,2.37
2023-05-13T01:47:19.352Z,2.40
2023-05-13T01:48:19.319Z,2.37
2023-05-13T01:49:19.255Z,2.36
2023-05-13T01:50:19.374Z,2.35
2023-05-13T01:51:19.266Z,2.34
2023-05-13T01:52:19.279Z,2.35
2023-05-13T01:53:19.292Z,2.38
2023-05-13T01:54:19.224Z,2.37
2023-05-13T01:55:19.201Z,2.35
2023-05-13T01:56:19.262Z,2.34
2023-05-13T01:57:19.195Z,2.29
2023-05-13T01:58:19.277Z,2.31
2023-05-13T01:59:19.218Z,2.32
2023-05-13T02:00:19.438Z,2.33
2023-05-13T02:01:21.797Z,2.32
2023-05-13T02:02:19.293Z,2.33
2023-05-13T02:03:19.391Z,2.30
2023-05-13T02:04:19.256Z,2.30
2023-05-13T02:05:19.271Z,2.31
2023-05-13T02:06:19.260Z,2.25
2023-05-13T02:07:19.221Z,2.25
2023-05-13T02:08:19.227Z,2.28
2023-05-13T02:09:19.245Z,2.25
2023-05-13T02:10:19.275Z,2.28
2023-05-13T02:11:19.204Z,2.28
2023-05-13T02:12:19.201Z,2.27
2023-05-13T02:13:19.196Z,2.28
2023-05-13T02:14:19.169Z,2.26
2023-05-13T02:15:19.158Z,2.27
2023-05-13T02:16:19.219Z,2.28
2023-05-13T02:17:19.150Z,2.21
2023-05-13T02:18:19.148Z,2.24
2023-05-13T02:19:19.143Z,2.28
2023-05-13T02:20:19.280Z,2.27
2023-05-13T02:21:19.113Z,2.23
2023-05-13T02:22:19.116Z,2.30
2023-05-13T02:23:19.123Z,2.24
2023-05-13T02:24:19.127Z,2.20
2023-05-13T02:25:19.232Z,2.30
2023-05-13T02:26:19.268Z,2.26
2023-05-13T02:27:19.087Z,2.22
2023-05-13T02:28:19.106Z,2.25
2023-05-13T02:29:19.091Z,2.23
2023-05-13T02:30:19.142Z,2.26
2023-05-13T02:31:19.096Z,2.21
2023-05-13T02:32:19.087Z,2.23
2023-05-13T02:33:19.045Z,2.21
2023-05-13T02:34:19.063Z,2.22
2023-05-13T02:35:19.106Z,2.21
2023-05-13T02:36:19.057Z,2.21
2023-05-13T02:37:19.061Z,2.23
2023-05-13T02:38:19.018Z,2.23
2023-05-13T02:39:19.012Z,2.24
2023-05-13T02:40:19.241Z,2.15
2023-05-13T02:41:18.994Z,2.14
2023-05-13T02:42:19.047Z,2.17
2023-05-13T02:43:18.985Z,2.16
2023-05-13T02:44:19.024Z,2.26
2023-05-13T02:45:19.009Z,2.21
2023-05-13T02:46:18.989Z,2.21
2023-05-13T02:47:18.982Z,2.14
2023-05-13T02:48:19.022Z,2.20
2023-05-13T02:49:18.987Z,2.21
2023-05-13T02:50:19.181Z,2.19
2023-05-13T02:51:18.980Z,2.20
2023-05-13T02:52:18.947Z,2.19
2023-05-13T02:53:18.923Z,2.16
2023-05-13T02:54:18.909Z,2.19
2023-05-13T02:55:18.932Z,2.15
2023-05-13T02:56:18.952Z,2.14
2023-05-13T02:57:18.880Z,2.17
2023-05-13T02:58:18.886Z,2.18
2023-05-13T02:59:18.856Z,2.18
2023-05-13T03:00:18.943Z,2.17
2023-05-13T03:01:18.907Z,2.19
2023-05-13T03:02:18.924Z,2.21
2023-05-13T03:03:19.059Z,2.12
2023-05-13T03:04:18.853Z,2.15
2023-05-13T03:05:18.822Z,2.17
2023-05-13T03:06:18.838Z,2.15
2023-05-13T03:07:18.854Z,2.16
2023-05-13T03:08:18.860Z,2.18
2023-05-13T03:09:18.869Z,2.17
2023-05-13T03:10:19.094Z,2.13
2023-05-13T03:11:18.969Z,2.14
2023-05-13T03:12:18.973Z,2.13
2023-05-13T03:13:18.992Z,2.13
2023-05-13T03:14:19.047Z,2.13
2023-05-13T03:15:19.067Z,2.12
2023-05-13T03:16:19.118Z,2.09
2023-05-13T03:17:19.157Z,2.13
2023-05-13T03:18:19.131Z,2.14
2023-05-13T03:19:19.223Z,2.12
2023-05-13T03:20:19.306Z,2.16
2023-05-13T03:21:19.263Z,2.13
2023-05-13T03:22:19.279Z,2.12
2023-05-13T03:23:19.309Z,2.11
2023-05-13T03:24:19.343Z,2.16
2023-05-13T03:25:19.417Z,2.13
2023-05-13T03:26:19.402Z,2.11
2023-05-13T03:27:19.452Z,2.11
2023-05-13T03:28:19.524Z,2.12
2023-05-13T03:29:19.524Z,2.14
2023-05-13T03:30:19.765Z,2.10
2023-05-13T03:31:19.636Z,2.13
2023-05-13T03:32:19.683Z,2.15
2023-05-13T03:33:19.697Z,2.07
2023-05-13T03:34:19.757Z,2.12
2023-05-13T03:35:19.758Z,2.11
2023-05-13T03:36:19.778Z,2.12
2023-05-13T03:37:19.843Z,2.08
2023-05-13T03:38:19.891Z,2.08
2023-05-13T03:39:19.908Z,2.08
2023-05-13T03:40:20.245Z,2.09
2023-05-13T03:41:20.009Z,2.06
2023-05-13T03:42:20.068Z,2.06
2023-05-13T03:43:20.094Z,2.04
2023-05-13T03:44:20.204Z,2.06
2023-05-13T03:45:20.123Z,2.10
2023-05-13T03:46:20.211Z,2.11
2023-05-13T03:47:20.206Z,2.05
2023-05-13T03:48:20.241Z,2.07
2023-05-13T03:49:20.304Z,2.09
2023-05-13T03:50:20.609Z,2.08
2023-05-13T03:51:20.376Z,2.08
2023-05-13T03:52:20.397Z,2.06
2023-05-13T03:53:20.476Z,2.04
2023-05-13T03:54:20.516Z,2.02
2023-05-13T03:55:20.574Z,2.05
2023-05-13T03:56:20.619Z,2.05
2023-05-13T03:57:20.608Z,2.07
2023-05-13T03:58:20.694Z,2.08
2023-05-13T03:59:20.746Z,2.08
2023-05-13T04:00:20.860Z,2.06
2023-05-13T04:01:20.824Z,2.07
2023-05-13T04:02:20.969Z,2.04
2023-05-13T04:03:20.930Z,1.99
2023-05-13T04:04:20.940Z,2.05
2023-05-13T04:05:21.091Z,2.07
2023-05-13T04:06:21.049Z,2.04
2023-05-13T04:07:21.113Z,2.06
2023-05-13T04:08:21.123Z,2.06
2023-05-13T04:09:21.166Z,2.05
2023-05-13T04:10:21.356Z,2.04
2023-05-13T04:11:21.249Z,2.05
2023-05-13T04:12:21.301Z,2.01
2023-05-13T04:13:21.377Z,2.04
2023-05-13T04:14:21.378Z,2.05
2023-05-13T04:15:21.458Z,2.03
2023-05-13T04:16:21.565Z,2.01
2023-05-13T04:17:21.624Z,2.00
2023-05-13T04:18:21.613Z,2.01
2023-05-13T04:19:21.663Z,1.97
2023-05-13T04:20:21.871Z,2.01
2023-05-13T04:21:21.753Z,2.05
2023-05-13T04:22:21.740Z,2.01
2023-05-13T04:23:21.831Z,2.00
2023-05-13T04:24:21.905Z,1.99
2023-05-13T04:25:21.983Z,2.02
2023-05-13T04:26:22.050Z,1.98
2023-05-13T04:27:22.005Z,1.98
2023-05-13T04:28:22.038Z,2.01
2023-05-13T04:29:22.146Z,1.99
2023-05-13T04:30:22.435Z,2.02
2023-05-13T04:31:22.263Z,2.03
2023-05-13T04:32:22.360Z,1.99
2023-05-13T04:33:22.314Z,1.99
2023-05-13T04:34:22.329Z,1.97
2023-05-13T04:35:22.412Z,1.95
2023-05-13T04:36:22.466Z,1.97
2023-05-13T04:37:22.549Z,2.00
2023-05-13T04:38:22.546Z,2.00
2023-05-13T04:39:22.573Z,1.99
2023-05-13T04:40:22.788Z,1.94
2023-05-13T04:41:22.682Z,1.96
2023-05-13T04:42:22.682Z,1.97
2023-05-13T04:43:22.789Z,1.96
2023-05-13T04:44:22.785Z,1.97
2023-05-13T04:45:22.860Z,1.97
2023-05-13T04:46:22.895Z,1.95
2023-05-13T04:47:22.941Z,1.96
2023-05-13T04:48:22.983Z,1.99
2023-05-13T04:49:23.013Z,1.97
2023-05-13T04:50:23.322Z,1.94
2023-05-13T04:51:23.090Z,1.98
2023-05-13T04:52:23.162Z,1.95
2023-05-13T04:53:23.199Z,1.94
2023-05-13T04:54:23.242Z,1.96
2023-05-13T04:55:23.320Z,1.94
2023-05-13T04:56:23.332Z,1.93
2023-05-13T04:57:23.365Z,1.92
2023-05-13T04:58:23.414Z,1.92
2023-05-13T04:59:23.470Z,1.94
2023-05-13T05:00:23.645Z,1.94
2023-05-13T05:01:23.620Z,1.94
2023-05-13T05:02:23.602Z,1.95
2023-05-13T05:03:23.652Z,1.91
2023-05-13T05:04:23.678Z,1.94
2023-05-13T05:05:23.737Z,1.91
2023-05-13T05:06:23.774Z,1.91
2023-05-13T05:07:23.811Z,1.92
2023-05-13T05:08:23.870Z,1.93
2023-05-13T05:09:23.906Z,1.96
2023-05-13T05:10:23.964Z,1.92
2023-05-13T05:11:23.998Z,1.93
2023-05-13T05:12:24.002Z,1.91
2023-05-13T05:13:24.056Z,1.95
2023-05-13T05:14:24.122Z,1.90
2023-05-13T05:15:24.214Z,1.91
2023-05-13T05:16:24.201Z,1.89
2023-05-13T05:17:24.351Z,1.96
2023-05-13T05:18:24.353Z,1.95
2023-05-13T05:19:24.497Z,1.90
2023-05-13T05:20:24.375Z,1.93
2023-05-13T05:21:24.396Z,1.93
2023-05-13T05:22:24.473Z,1.93
2023-05-13T05:23:24.505Z,1.92
2023-05-13T05:24:24.571Z,1.91
2023-05-13T05:25:24.655Z,1.92
2023-05-13T05:26:24.631Z,1.91
2023-05-13T05:27:24.684Z,1.92
2023-05-13T05:28:24.736Z,1.88
2023-05-13T05:29:24.797Z,1.92
2023-05-13T05:30:24.903Z,1.92
2023-05-13T05:31:24.971Z,1.91
2023-05-13T05:32:24.930Z,1.90
2023-05-13T05:33:24.954Z,1.89
2023-05-13T05:34:25.000Z,1.90
2023-05-13T05:35:25.061Z,1.90
2023-05-13T05:36:25.087Z,1.89
2023-05-13T05:37:25.119Z,1.90
2023-05-13T05:38:25.199Z,1.89
2023-05-13T05:39:25.200Z,1.92
2023-05-13T05:40:25.237Z,1.87
2023-05-13T05:41:25.294Z,1.89
2023-05-13T05:42:25.316Z,1.91
2023-05-13T05:43:25.363Z,1.93
2023-05-13T05:44:25.399Z,1.89
2023-05-13T05:45:25.461Z,1.89
2023-05-13T05:46:25.693Z,1.90
2023-05-13T05:47:25.580Z,1.88
2023-05-13T05:48:25.544Z,1.86
2023-05-13T05:49:25.608Z,1.89
2023-05-13T05:50:25.684Z,1.90
2023-05-13T05:51:25.675Z,1.89
2023-05-13T05:52:25.728Z,1.88
2023-05-13T05:53:25.763Z,1.87
2023-05-13T05:54:25.811Z,1.88
2023-05-13T05:55:25.823Z,1.89
2023-05-13T05:56:25.905Z,1.88
2023-05-13T05:57:25.888Z,1.88
2023-05-13T05:58:25.928Z,1.90
2023-05-13T05:59:25.974Z,1.89
2023-05-13T06:00:26.007Z,1.90
2023-05-13T06:01:26.044Z,1.89
2023-05-13T06:02:26.171Z,1.90
2023-05-13T06:03:26.214Z,1.87
2023-05-13T06:04:26.131Z,1.93
2023-05-13T06:05:26.139Z,1.92
2023-05-13T06:06:26.217Z,1.84
2023-05-13T06:07:26.192Z,1.88
2023-05-13T06:08:28.044Z,1.92
2023-05-13T06:09:26.289Z,1.91
2023-05-13T06:10:26.309Z,1.92
2023-05-13T06:11:26.346Z,1.91
2023-05-13T06:12:26.344Z,1.93
2023-05-13T06:13:26.377Z,1.91
2023-05-13T06:14:26.398Z,1.88
2023-05-13T06:15:26.404Z,1.89
2023-05-13T06:16:26.545Z,1.90
2023-05-13T06:17:26.477Z,1.92
2023-05-13T06:18:26.616Z,1.91
2023-05-13T06:19:26.513Z,1.92
2023-05-13T06:20:26.505Z,1.90
2023-05-13T06:21:26.517Z,1.94
2023-05-13T06:22:26.575Z,1.92
2023-05-13T06:23:26.572Z,1.94
2023-05-13T06:24:26.633Z,1.94
2023-05-13T06:25:26.633Z,1.93
2023-05-13T06:26:26.671Z,1.92
2023-05-13T06:27:26.703Z,1.91
2023-05-13T06:28:26.721Z,1.95
2023-05-13T06:29:26.729Z,1.92
2023-05-13T06:30:26.750Z,1.93
2023-05-13T06:31:26.840Z,1.96
2023-05-13T06:32:26.807Z,1.94
2023-05-13T06:33:26.840Z,1.93
2023-05-13T06:34:26.826Z,1.91
2023-05-13T06:35:26.875Z,1.95
2023-05-13T06:36:26.828Z,1.90
2023-05-13T06:37:26.944Z,1.91
2023-05-13T06:38:26.923Z,1.90
2023-05-13T06:39:26.937Z,1.94
2023-05-13T06:40:27.046Z,1.90
2023-05-13T06:41:26.986Z,1.89
2023-05-13T06:42:26.991Z,1.91
2023-05-13T06:43:26.990Z,1.88
2023-05-13T06:44:27.039Z,1.91
2023-05-13T06:45:27.035Z,1.91
2023-05-13T06:46:27.094Z,1.89
2023-05-13T06:47:27.126Z,1.91
2023-05-13T06:48:27.103Z,1.88
2023-05-13T06:49:27.093Z,1.89
2023-05-13T06:50:27.158Z,1.92
2023-05-13T06:51:27.191Z,1.86
2023-05-13T06:52:27.189Z,1.89
2023-05-13T06:53:27.216Z,1.88
2023-05-13T06:54:27.210Z,1.87
2023-05-13T06:55:27.232Z,1.90
2023-05-13T06:56:27.293Z,1.90
2023-05-13T06:57:38.801Z,1.86
2023-05-13T06:58:28.303Z,1.86
2023-05-13T06:59:27.285Z,1.86
2023-05-13T07:00:27.270Z,1.88
2023-05-13T07:01:28.050Z,1.89
2023-05-13T07:02:27.290Z,1.87
2023-05-13T07:03:27.306Z,1.92
2023-05-13T07:04:27.231Z,1.88
2023-05-13T07:05:27.248Z,1.90
2023-05-13T07:06:27.249Z,1.93
2023-05-13T07:07:27.229Z,1.88
2023-05-13T07:08:27.223Z,1.89
2023-05-13T07:09:27.221Z,1.91
2023-05-13T07:10:27.229Z,1.89
2023-05-13T07:11:27.206Z,1.88
2023-05-13T07:12:27.222Z,1.87
2023-05-13T07:13:27.178Z,1.86
2023-05-13T07:14:27.151Z,1.92
2023-05-13T07:15:27.187Z,1.89
2023-05-13T07:16:27.155Z,1.89
2023-05-13T07:17:27.293Z,1.90
2023-05-13T07:18:27.287Z,1.88
2023-05-13T07:19:27.168Z,1.87
2023-05-13T07:20:27.145Z,1.87
2023-05-13T07:21:27.169Z,1.89
2023-05-13T07:22:27.107Z,1.87
2023-05-13T07:23:27.125Z,1.87
2023-05-13T07:24:27.117Z,1.87
2023-05-13T07:25:27.105Z,1.86
2023-05-13T07:26:27.109Z,1.90
2023-05-13T07:27:27.086Z,1.87
2023-05-13T07:28:27.084Z,1.86
2023-05-13T07:29:27.666Z,1.85
2023-05-13T07:30:27.091Z,1.82
2023-05-13T07:31:27.269Z,1.86
2023-05-13T07:32:27.073Z,1.87
2023-05-13T07:33:27.099Z,1.88
2023-05-13T07:34:27.035Z,1.81
2023-05-13T07:35:27.033Z,1.84
2023-05-13T07:36:27.031Z,1.81
2023-05-13T07:37:27.020Z,1.82
2023-05-13T07:38:27.050Z,1.80
2023-05-13T07:39:27.051Z,1.81
2023-05-13T07:40:27.008Z,1.82
2023-05-13T07:41:27.044Z,1.81
2023-05-13T07:42:27.010Z,1.81
2023-05-13T07:43:26.972Z,1.77
2023-05-13T07:44:27.009Z,1.76
2023-05-13T07:45:26.974Z,1.77
2023-05-13T07:46:26.999Z,1.76
2023-05-13T07:47:27.072Z,1.77
2023-05-13T07:48:27.102Z,1.76
2023-05-13T07:49:27.095Z,1.76
2023-05-13T07:50:27.169Z,1.72
2023-05-13T07:51:27.280Z,1.73
2023-05-13T07:52:27.351Z,1.72
2023-05-13T07:53:27.357Z,1.71
2023-05-13T07:54:27.414Z,1.70
2023-05-13T07:55:27.492Z,1.71
2023-05-13T07:56:27.574Z,1.72
2023-05-13T07:57:27.632Z,1.70
2023-05-13T07:58:27.673Z,1.73
2023-05-13T07:59:27.748Z,1.69
2023-05-13T08:00:27.812Z,1.70
2023-05-13T08:01:28.525Z,1.69
2023-05-13T08:02:28.003Z,1.68
2023-05-13T08:03:27.979Z,1.67
2023-05-13T08:04:28.025Z,1.68
2023-05-13T08:05:28.139Z,1.67
2023-05-13T08:06:28.104Z,1.64
2023-05-13T08:07:28.180Z,1.63
2023-05-13T08:08:28.210Z,1.59
2023-05-13T08:09:28.283Z,1.54
2023-05-13T08:10:28.290Z,1.55
2023-05-13T08:11:28.309Z,1.54
2023-05-13T08:12:28.378Z,1.55
2023-05-13T08:13:28.420Z,1.51
2023-05-13T08:14:28.461Z,1.48
2023-05-13T08:15:28.528Z,1.51
2023-05-13T08:16:28.580Z,1.50
2023-05-13T08:17:28.602Z,1.55
2023-05-13T08:18:28.668Z,1.51
2023-05-13T08:19:28.654Z,1.49
2023-05-13T08:20:28.707Z,1.46
2023-05-13T08:21:28.677Z,1.45
2023-05-13T08:22:28.777Z,1.46
2023-05-13T08:23:43.271Z,1.48
2023-05-13T08:24:29.802Z,1.48
2023-05-13T08:25:28.785Z,1.48
2023-05-13T08:26:28.713Z,1.43
2023-05-13T08:27:28.727Z,1.47
2023-05-13T08:28:28.734Z,1.44
2023-05-13T08:29:28.718Z,1.47
2023-05-13T08:30:28.719Z,1.46
2023-05-13T08:31:28.760Z,1.41
2023-05-13T08:32:28.712Z,1.34
2023-05-13T08:33:28.661Z,1.36
2023-05-13T08:34:28.695Z,1.38
2023-05-13T08:35:28.666Z,1.38
2023-05-13T08:36:28.676Z,1.38
2023-05-13T08:37:28.660Z,1.40
2023-05-13T08:38:28.651Z,1.43
2023-05-13T08:39:28.675Z,1.43
2023-05-13T08:40:28.654Z,1.41
2023-05-13T08:41:28.651Z,1.45
2023-05-13T08:42:28.608Z,1.45
2023-05-13T08:43:28.621Z,1.46
2023-05-13T08:44:28.708Z,1.38
2023-05-13T08:45:28.637Z,1.37
2023-05-13T08:46:28.687Z,1.32
2023-05-13T08:47:28.704Z,1.25
2023-05-13T08:48:28.703Z,1.25
2023-05-13T08:49:28.701Z,1.27
2023-05-13T08:50:28.736Z,1.32
2023-05-13T08:51:28.749Z,1.24
2023-05-13T08:52:28.752Z,1.22
2023-05-13T08:53:28.822Z,1.23
2023-05-13T08:54:28.813Z,1.28
2023-05-13T08:55:28.814Z,1.25
2023-05-13T08:56:28.814Z,1.26
2023-05-13T08:57:28.857Z,1.28
2023-05-13T08:58:28.881Z,1.33
2023-05-13T08:59:28.894Z,1.29
2023-05-13T09:00:28.887Z,1.27
2023-05-13T09:01:28.919Z,1.29
2023-05-13T09:02:28.873Z,1.30
2023-05-13T09:03:28.852Z,1.36
2023-05-13T09:04:28.903Z,1.39
2023-05-13T09:05:29.003Z,1.24
2023-05-13T09:06:28.861Z,1.19
2023-05-13T09:07:28.882Z,1.14
2023-05-13T09:08:28.883Z,1.18
2023-05-13T09:09:28.889Z,1.14
2023-05-13T09:10:28.878Z,1.19
2023-05-13T09:11:28.848Z,1.20
2023-05-13T09:12:28.863Z,1.21
2023-05-13T09:13:28.880Z,1.20
2023-05-13T09:14:28.888Z,1.20
2023-05-13T09:15:28.909Z,1.22
2023-05-13T09:16:29.200Z,1.18
2023-05-13T09:17:29.041Z,1.16
2023-05-13T09:18:29.192Z,1.20
2023-05-13T09:19:29.255Z,1.24
2023-05-13T09:20:29.204Z,1.24
2023-05-13T09:21:29.224Z,1.23
2023-05-13T09:22:29.272Z,1.26
2023-05-13T09:23:29.429Z,1.26
2023-05-13T09:24:29.341Z,1.20
2023-05-13T09:25:29.433Z,1.21
2023-05-13T09:26:29.488Z,1.27
2023-05-13T09:27:29.552Z,1.26
2023-05-13T09:28:29.618Z,1.23
2023-05-13T09:29:29.697Z,1.24
2023-05-13T09:30:29.745Z,1.26
2023-05-13T09:31:29.862Z,1.25
2023-05-13T09:32:29.861Z,1.28
2023-05-13T09:33:29.936Z,1.22
2023-05-13T09:34:30.006Z,1.23
2023-05-13T09:35:30.045Z,1.14
2023-05-13T09:36:30.109Z,1.19
2023-05-13T09:37:30.149Z,1.16
2023-05-13T09:38:30.229Z,1.14
2023-05-13T09:39:31.649Z,1.12
2023-05-13T09:40:30.281Z,1.11
2023-05-13T09:41:30.283Z,1.09
2023-05-13T09:42:30.286Z,1.11
2023-05-13T09:43:30.264Z,1.10
2023-05-13T09:44:30.232Z,1.09
2023-05-13T09:45:30.242Z,1.09
2023-05-13T09:46:30.369Z,1.11
2023-05-13T09:47:30.321Z,1.18
2023-05-13T09:48:30.222Z,1.12
2023-05-13T09:49:30.232Z,1.04
2023-05-13T09:50:30.237Z,1.07
2023-05-13T09:51:30.177Z,1.07
2023-05-13T09:52:30.186Z,1.08
2023-05-13T09:53:30.206Z,1.06
2023-05-13T09:54:31.416Z,1.00
2023-05-13T09:55:30.214Z,0.95
2023-05-13T09:56:30.182Z,0.92
2023-05-13T09:57:30.287Z,0.94
2023-05-13T09:58:30.310Z,0.87
2023-05-13T09:59:30.411Z,0.82
2023-05-13T10:00:32.961Z,0.77
2023-05-13T10:01:30.453Z,0.79
2023-05-13T10:02:30.412Z,0.83
2023-05-13T10:03:30.425Z,0.84
2023-05-13T10:04:30.389Z,0.87
2023-05-13T10:05:30.388Z,0.83
2023-05-13T10:06:30.418Z,0.75
2023-05-13T10:07:30.406Z,0.68
2023-05-13T10:08:30.367Z,0.70
2023-05-13T10:09:30.370Z,0.70
2023-05-13T10:10:30.354Z,0.70
2023-05-13T10:11:30.337Z,0.71
2023-05-13T10:12:30.340Z,0.70
2023-05-13T10:13:30.316Z,0.69
2023-05-13T10:14:30.315Z,0.70
2023-05-13T10:15:30.297Z,0.71
2023-05-13T10:16:30.355Z,0.65
2023-05-13T10:17:30.352Z,0.60
2023-05-13T10:18:30.355Z,0.57
2023-05-13T10:19:30.306Z,0.57
2023-05-13T10:20:30.300Z,0.58
2023-05-13T10:21:30.299Z,0.55
2023-05-13T10:22:30.276Z,0.55
2023-05-13T10:23:30.304Z,0.53
2023-05-13T10:24:30.271Z,0.50
2023-05-13T10:25:30.254Z,0.51
2023-05-13T10:26:30.219Z,0.50
2023-05-13T10:27:30.224Z,0.50
2023-05-13T10:28:30.240Z,0.50
2023-05-13T10:29:30.205Z,0.53
2023-05-13T10:30:30.263Z,0.55
2023-05-13T10:31:30.301Z,0.58
2023-05-13T10:32:30.209Z,0.54
2023-05-13T10:33:30.198Z,0.50
2023-05-13T10:34:30.171Z,0.51
2023-05-13T10:35:30.240Z,0.50
2023-05-13T10:36:30.199Z,0.55
2023-05-13T10:37:30.165Z,0.59
2023-05-13T10:38:30.221Z,0.54
2023-05-13T10:39:30.237Z,0.53
2023-05-13T10:40:30.323Z,0.50
2023-05-13T10:41:30.393Z,0.50
2023-05-13T10:42:30.438Z,0.52
2023-05-13T10:43:30.489Z,0.51
2023-05-13T10:44:30.513Z,0.48
2023-05-13T10:45:30.605Z,0.45
2023-05-13T10:46:30.683Z,0.48
2023-05-13T10:47:30.790Z,0.49
2023-05-13T10:48:30.859Z,0.46
2023-05-13T10:49:30.796Z,0.47
2023-05-13T10:50:30.802Z,0.50
2023-05-13T10:51:30.809Z,0.49
2023-05-13T10:52:30.868Z,0.49
2023-05-13T10:53:30.850Z,0.50
2023-05-13T10:54:30.882Z,0.50
2023-05-13T10:55:30.894Z,0.51
2023-05-13T10:56:30.909Z,0.50
2023-05-13T10:57:31.001Z,0.50
2023-05-13T10:58:31.073Z,0.50
2023-05-13T10:59:31.107Z,0.52
2023-05-13T11:00:31.145Z,0.50
2023-05-13T11:01:31.291Z,0.50
2023-05-13T11:02:31.313Z,0.50
2023-05-13T11:03:31.487Z,0.50
2023-05-13T11:04:31.354Z,0.53
2023-05-13T11:05:31.360Z,0.52
2023-05-13T11:06:31.429Z,0.50
2023-05-13T11:07:31.477Z,0.54
2023-05-13T11:08:31.546Z,0.52
2023-05-13T11:09:31.596Z,0.51
2023-05-13T11:10:31.654Z,0.51
2023-05-13T11:11:31.710Z,0.54
2023-05-13T11:12:31.768Z,0.51
2023-05-13T11:13:31.817Z,0.51
2023-05-13T11:14:31.968Z,0.50
2023-05-13T11:15:31.900Z,0.54
2023-05-13T11:16:31.971Z,0.57
2023-05-13T11:17:32.023Z,0.59
2023-05-13T11:18:32.086Z,0.55
2023-05-13T11:19:32.125Z,0.51
2023-05-13T11:20:39.941Z,0.53
2023-05-13T11:21:33.180Z,0.53
2023-05-13T11:22:32.150Z,0.51
2023-05-13T11:23:32.163Z,0.49
2023-05-13T11:24:32.107Z,0.48
2023-05-13T11:25:32.113Z,0.46
2023-05-13T11:26:32.093Z,0.50
2023-05-13T11:27:32.082Z,0.54
2023-05-13T11:28:32.081Z,0.50
2023-05-13T11:29:32.104Z,0.59
2023-05-13T11:30:32.079Z,0.59
2023-05-13T11:31:32.159Z,0.51
2023-05-13T11:32:32.091Z,0.55
2023-05-13T11:33:32.086Z,0.53
2023-05-13T11:34:32.113Z,0.50
2023-05-13T11:35:32.148Z,0.60
2023-05-13T11:36:32.197Z,0.60
2023-05-13T11:37:32.297Z,0.58
2023-05-13T11:38:32.301Z,0.59
2023-05-13T11:39:32.402Z,0.60
2023-05-13T11:40:32.426Z,0.61
2023-05-13T11:41:32.461Z,0.62
2023-05-13T11:42:32.489Z,0.67
2023-05-13T11:43:34.604Z,0.61
2023-05-13T11:44:32.549Z,0.62
2023-05-13T11:45:32.595Z,0.60
2023-05-13T11:46:32.591Z,0.61
2023-05-13T11:47:32.663Z,0.60
2023-05-13T11:48:32.644Z,0.62
2023-05-13T11:49:32.744Z,0.60
2023-05-13T11:50:32.685Z,0.57
2023-05-13T11:51:32.701Z,0.63
2023-05-13T11:52:32.668Z,0.60
2023-05-13T11:53:32.713Z,0.62
2023-05-13T11:54:32.729Z,0.61
2023-05-13T11:55:32.796Z,0.60
2023-05-13T11:56:32.721Z,0.65
2023-05-13T11:57:32.806Z,0.63
2023-05-13T11:58:32.744Z,0.65
2023-05-13T11:59:41.762Z,0.66
2023-05-13T12:00:33.784Z,0.67
2023-05-13T12:01:32.761Z,0.65
2023-05-13T12:02:32.818Z,0.61
2023-05-13T12:03:32.778Z,0.60
2023-05-13T12:04:32.745Z,0.67
2023-05-13T12:05:32.801Z,0.65
2023-05-13T12:06:32.729Z,0.70
2023-05-13T12:07:32.704Z,0.78
2023-05-13T12:08:32.710Z,0.75
2023-05-13T12:09:32.723Z,0.70
2023-05-13T12:10:32.686Z,0.75
2023-05-13T12:11:32.689Z,0.66
2023-05-13T12:12:32.699Z,0.68
2023-05-13T12:13:32.705Z,0.68
2023-05-13T12:14:32.651Z,0.67
2023-05-13T12:15:32.660Z,0.82
2023-05-13T12:16:32.788Z,0.77
2023-05-13T12:17:32.665Z,0.72
2023-05-13T12:18:32.679Z,0.68
2023-05-13T12:19:32.673Z,0.64
2023-05-13T12:20:32.698Z,0.79
2023-05-13T12:21:32.692Z,0.84
2023-05-13T12:22:32.772Z,0.77
2023-05-13T12:23:32.779Z,0.67
2023-05-13T12:24:32.844Z,0.64
2023-05-13T12:25:32.965Z,0.68
2023-05-13T12:26:32.986Z,0.64
2023-05-13T12:27:33.013Z,0.58
2023-05-13T12:28:33.050Z,0.54
2023-05-13T12:29:33.130Z,0.50
2023-05-13T12:30:33.169Z,0.50
2023-05-13T12:31:33.269Z,0.51
2023-05-13T12:32:33.321Z,0.51
2023-05-13T12:33:33.286Z,0.51
2023-05-13T12:34:33.368Z,0.50
2023-05-13T12:35:33.405Z,0.55
2023-05-13T12:36:33.662Z,0.52
2023-05-13T12:37:33.525Z,0.52
2023-05-13T12:38:33.615Z,0.50
2023-05-13T12:39:33.634Z,0.56
2023-05-13T12:40:33.708Z,0.50
2023-05-13T12:41:33.823Z,0.50
2023-05-13T12:42:33.826Z,0.62
2023-05-13T12:43:33.864Z,0.57
2023-05-13T12:44:33.928Z,0.83
2023-05-13T12:45:33.991Z,0.95
2023-05-13T12:46:34.075Z,0.87
2023-05-13T12:47:34.108Z,0.81
2023-05-13T12:48:34.104Z,0.77
2023-05-13T12:49:34.176Z,0.71
2023-05-13T12:50:34.173Z,0.72
2023-05-13T12:51:34.255Z,0.82
2023-05-13T12:52:34.242Z,0.81
2023-05-13T12:53:34.258Z,0.86
2023-05-13T12:54:34.278Z,0.81
2023-05-13T12:55:34.307Z,1.01
2023-05-13T12:56:34.312Z,1.06
2023-05-13T12:57:34.342Z,0.96
2023-05-13T12:58:34.352Z,0.83
2023-05-13T12:59:34.353Z,0.73
2023-05-13T13:00:34.464Z,0.75
2023-05-13T13:01:34.599Z,0.80
2023-05-13T13:02:34.552Z,0.83
2023-05-13T13:03:34.542Z,0.93
2023-05-13T13:04:34.458Z,0.85
2023-05-13T13:05:34.472Z,0.82
2023-05-13T13:06:34.442Z,0.69
2023-05-13T13:07:34.414Z,1.10
2023-05-13T13:08:34.472Z,0.91
2023-05-13T13:09:34.454Z,0.80
2023-05-13T13:10:34.458Z,0.71
2023-05-13T13:11:34.498Z,0.75
2023-05-13T13:12:34.482Z,0.71
2023-05-13T13:13:35.189Z,0.63
2023-05-13T13:14:34.547Z,0.76
2023-05-13T13:15:34.625Z,0.76
2023-05-13T13:16:34.602Z,0.85
2023-05-13T13:17:34.622Z,0.73
2023-05-13T13:18:34.685Z,0.68